Acme, Wyoming
Current Conditions -  °F | °C
As of 11:53 PM on Saturday 25 Oct 2014 (Local Time) from KSHR Reporting Station
Clear Clear  
Wind Chill: 64°   Ceiling: Unl
Heat Index: 64°   Visibility: 10mi
Dew Point: 24°   Wind: 13mph
Humidity: 22%   Direction: 220°SW
Pressure: 29.68"   Gusts: NA
Location:  44.8885°N, 107.104°W
Report Text: KSHR 260553Z AUTO 22011KT 10SM CLR 18/M04 A2968 RMK AO2 SLP026 T01781044 10194 20111 58013 TSNO
Loading
Personal Weather Stations






























Interactive Weather Map
Tropical Storm Tracking
New forecast layout! Learn more

10-Day Weather Forecast

Advertisements
Track Severe Weather on mobile